sensor_id;sensor_type;location;lat;lon;timestamp;temperature;humidity
3944;DHT22;1986;52.546;13.428;2023-11-21T00:00:37;8.30;99.90
3944;DHT22;1986;52.546;13.428;2023-11-21T00:03:04;8.20;99.90
3944;DHT22;1986;52.546;13.428;2023-11-21T00:05:33;8.20;99.90
3944;DHT22;1986;52.546;13.428;2023-11-21T00:24:54;8.20;99.90
3944;DHT22;1986;52.546;13.428;2023-11-21T00:27:22;8.30;99.90
3944;DHT22;1986;52.546;13.428;2023-11-21T00:29:49;8.30;99.90
3944;DHT22;1986;52.546;13.428;2023-11-21T00:32:16;8.40;99.90
3944;DHT22;1986;52.546;13.428;2023-11-21T00:34:43;8.30;99.90
3944;DHT22;1986;52.546;13.428;2023-11-21T00:37:11;8.30;99.90
3944;DHT22;1986;52.546;13.428;2023-11-21T00:39:40;8.20;99.90
3944;DHT22;1986;52.546;13.428;2023-11-21T00:42:10;8.10;99.90
3944;DHT22;1986;52.546;13.428;2023-11-21T00:44:38;8.20;99.90
3944;DHT22;1986;52.546;13.428;2023-11-21T00:47:05;8.10;99.90
3944;DHT22;1986;52.546;13.428;2023-11-21T00:49:34;8.00;99.90
3944;DHT22;1986;52.546;13.428;2023-11-21T00:52:00;7.90;99.90
3944;DHT22;1986;52.546;13.428;2023-11-21T00:54:30;7.90;99.90
3944;DHT22;1986;52.546;13.428;2023-11-21T00:56:58;7.90;99.90
3944;DHT22;1986;52.546;13.428;2023-11-21T00:59:30;7.90;99.90
3944;DHT22;1986;52.546;13.428;2023-11-21T01:01:58;7.90;99.90
3944;DHT22;1986;52.546;13.428;2023-11-21T01:04:27;7.80;99.90
3944;DHT22;1986;52.546;13.428;2023-11-21T01:07:05;7.80;99.90
3944;DHT22;1986;52.546;13.428;2023-11-21T01:09:33;7.90;99.90
3944;DHT22;1986;52.546;13.428;2023-11-21T01:12:01;7.70;99.90
3944;DHT22;1986;52.546;13.428;2023-11-21T01:14:30;7.70;99.90
3944;DHT22;1986;52.546;13.428;2023-11-21T01:17:05;7.70;99.90
3944;DHT22;1986;52.546;13.428;2023-11-21T01:19:33;7.70;99.90
3944;DHT22;1986;52.546;13.428;2023-11-21T01:22:02;7.70;99.90
3944;DHT22;1986;52.546;13.428;2023-11-21T01:24:30;7.70;99.90
3944;DHT22;1986;52.546;13.428;2023-11-21T01:26:58;7.70;99.90
3944;DHT22;1986;52.546;13.428;2023-11-21T01:29:27;7.70;99.90
3944;DHT22;1986;52.546;13.428;2023-11-21T01:31:56;7.60;99.90
3944;DHT22;1986;52.546;13.428;2023-11-21T01:34:26;7.60;99.90
3944;DHT22;1986;52.546;13.428;2023-11-21T01:36:54;7.50;99.90
3944;DHT22;1986;52.546;13.428;2023-11-21T01:39:23;7.50;99.90
3944;DHT22;1986;52.546;13.428;2023-11-21T01:41:51;7.50;99.90
3944;DHT22;1986;52.546;13.428;2023-11-21T01:44:19;7.50;99.90
3944;DHT22;1986;52.546;13.428;2023-11-21T01:46:47;7.40;99.90
3944;DHT22;1986;52.546;13.428;2023-11-21T01:49:18;7.40;99.90
3944;DHT22;1986;52.546;13.428;2023-11-21T01:51:48;7.30;99.90
3944;DHT22;1986;52.546;13.428;2023-11-21T01:54:16;7.30;99.90
3944;DHT22;1986;52.546;13.428;2023-11-21T01:56:44;7.40;99.90
3944;DHT22;1986;52.546;13.428;2023-11-21T01:59:15;7.30;99.90
3944;DHT22;1986;52.546;13.428;2023-11-21T02:01:44;7.20;99.90
3944;DHT22;1986;52.546;13.428;2023-11-21T02:04:12;7.20;99.90
3944;DHT22;1986;52.546;13.428;2023-11-21T02:06:40;7.10;99.90
3944;DHT22;1986;52.546;13.428;2023-11-21T02:09:10;7.10;99.90
3944;DHT22;1986;52.546;13.428;2023-11-21T02:11:40;7.10;99.90
3944;DHT22;1986;52.546;13.428;2023-11-21T02:14:08;7.10;99.90
3944;DHT22;1986;52.546;13.428;2023-11-21T02:16:39;7.20;99.90
3944;DHT22;1986;52.546;13.428;2023-11-21T02:19:08;7.40;99.90
3944;DHT22;1986;52.546;13.428;2023-11-21T02:21:41;7.30;99.90
3944;DHT22;1986;52.546;13.428;2023-11-21T02:24:11;7.10;99.90
3944;DHT22;1986;52.546;13.428;2023-11-21T02:26:39;7.00;99.90
3944;DHT22;1986;52.546;13.428;2023-11-21T02:29:06;7.10;99.90
3944;DHT22;1986;52.546;13.428;2023-11-21T02:31:36;7.00;99.90
3944;DHT22;1986;52.546;13.428;2023-11-21T02:34:11;7.00;99.90
3944;DHT22;1986;52.546;13.428;2023-11-21T02:36:40;7.00;99.90
3944;DHT22;1986;52.546;13.428;2023-11-21T02:39:08;7.00;99.90
3944;DHT22;1986;52.546;13.428;2023-11-21T02:41:38;7.00;99.90
3944;DHT22;1986;52.546;13.428;2023-11-21T02:44:06;7.00;99.90
3944;DHT22;1986;52.546;13.428;2023-11-21T02:46:35;6.90;99.90
3944;DHT22;1986;52.546;13.428;2023-11-21T02:49:06;6.90;99.90
3944;DHT22;1986;52.546;13.428;2023-11-21T02:51:37;6.80;99.90
3944;DHT22;1986;52.546;13.428;2023-11-21T02:54:05;6.80;99.90
3944;DHT22;1986;52.546;13.428;2023-11-21T02:56:37;6.80;99.90
3944;DHT22;1986;52.546;13.428;2023-11-21T02:59:05;6.80;99.90
3944;DHT22;1986;52.546;13.428;2023-11-21T03:01:34;6.80;99.90
3944;DHT22;1986;52.546;13.428;2023-11-21T03:04:02;6.70;99.90
3944;DHT22;1986;52.546;13.428;2023-11-21T03:06:30;6.70;99.90
3944;DHT22;1986;52.546;13.428;2023-11-21T03:08:56;6.80;99.90
3944;DHT22;1986;52.546;13.428;2023-11-21T03:11:26;6.70;99.90
3944;DHT22;1986;52.546;13.428;2023-11-21T03:13:54;6.70;99.90
3944;DHT22;1986;52.546;13.428;2023-11-21T03:16:22;6.80;99.90
3944;DHT22;1986;52.546;13.428;2023-11-21T03:18:51;6.80;99.90
3944;DHT22;1986;52.546;13.428;2023-11-21T03:21:18;6.80;99.90
3944;DHT22;1986;52.546;13.428;2023-11-21T03:23:45;6.90;99.90
3944;DHT22;1986;52.546;13.428;2023-11-21T03:26:15;6.90;99.90
3944;DHT22;1986;52.546;13.428;2023-11-21T03:28:42;6.80;99.90
3944;DHT22;1986;52.546;13.428;2023-11-21T03:31:10;6.80;99.90
3944;DHT22;1986;52.546;13.428;2023-11-21T03:33:39;6.80;99.90
3944;DHT22;1986;52.546;13.428;2023-11-21T03:36:09;6.80;99.90
3944;DHT22;1986;52.546;13.428;2023-11-21T03:38:36;6.90;99.90
3944;DHT22;1986;52.546;13.428;2023-11-21T03:41:05;6.80;99.90
3944;DHT22;1986;52.546;13.428;2023-11-21T03:43:32;6.90;99.90
3944;DHT22;1986;52.546;13.428;2023-11-21T03:45:59;7.00;99.90
3944;DHT22;1986;52.546;13.428;2023-11-21T03:48:28;7.00;99.90
3944;DHT22;1986;52.546;13.428;2023-11-21T03:50:58;6.90;99.90
3944;DHT22;1986;52.546;13.428;2023-11-21T03:53:25;6.90;99.90
3944;DHT22;1986;52.546;13.428;2023-11-21T03:55:54;6.80;99.90
3944;DHT22;1986;52.546;13.428;2023-11-21T03:58:21;6.70;99.90
3944;DHT22;1986;52.546;13.428;2023-11-21T04:00:49;6.60;99.90
3944;DHT22;1986;52.546;13.428;2023-11-21T04:03:15;6.50;99.90
3944;DHT22;1986;52.546;13.428;2023-11-21T04:05:45;6.40;99.90
3944;DHT22;1986;52.546;13.428;2023-11-21T04:08:12;6.30;99.90
3944;DHT22;1986;52.546;13.428;2023-11-21T04:10:39;6.40;99.90
3944;DHT22;1986;52.546;13.428;2023-11-21T04:13:09;6.40;99.90
3944;DHT22;1986;52.546;13.428;2023-11-21T04:15:38;6.40;99.90
3944;DHT22;1986;52.546;13.428;2023-11-21T04:18:12;6.40;99.90
3944;DHT22;1986;52.546;13.428;2023-11-21T04:20:38;6.30;99.90
3944;DHT22;1986;52.546;13.428;2023-11-21T04:23:08;6.40;99.90
3944;DHT22;1986;52.546;13.428;2023-11-21T04:25:35;6.30;99.90
3944;DHT22;1986;52.546;13.428;2023-11-21T04:28:03;6.30;99.90
3944;DHT22;1986;52.546;13.428;2023-11-21T04:30:32;6.30;99.90
3944;DHT22;1986;52.546;13.428;2023-11-21T04:32:59;6.30;99.90
3944;DHT22;1986;52.546;13.428;2023-11-21T04:35:29;6.40;99.90
3944;DHT22;1986;52.546;13.428;2023-11-21T04:37:56;6.50;99.90
3944;DHT22;1986;52.546;13.428;2023-11-21T04:40:25;6.60;99.90
3944;DHT22;1986;52.546;13.428;2023-11-21T04:42:52;6.50;99.90
3944;DHT22;1986;52.546;13.428;2023-11-21T04:45:19;6.40;99.90
3944;DHT22;1986;52.546;13.428;2023-11-21T04:47:46;6.30;99.90
3944;DHT22;1986;52.546;13.428;2023-11-21T04:50:15;6.30;99.90
3944;DHT22;1986;52.546;13.428;2023-11-21T04:52:42;6.40;99.90
3944;DHT22;1986;52.546;13.428;2023-11-21T04:55:09;6.40;99.90
3944;DHT22;1986;52.546;13.428;2023-11-21T04:57:37;6.30;99.90
3944;DHT22;1986;52.546;13.428;2023-11-21T05:00:06;6.40;99.90
3944;DHT22;1986;52.546;13.428;2023-11-21T05:02:33;6.50;99.90
3944;DHT22;1986;52.546;13.428;2023-11-21T05:05:00;6.60;99.90
3944;DHT22;1986;52.546;13.428;2023-11-21T05:07:28;6.60;99.90
3944;DHT22;1986;52.546;13.428;2023-11-21T05:09:58;6.60;99.90
3944;DHT22;1986;52.546;13.428;2023-11-21T05:12:25;6.60;99.90
3944;DHT22;1986;52.546;13.428;2023-11-21T05:14:53;6.50;99.90
3944;DHT22;1986;52.546;13.428;2023-11-21T05:17:21;6.40;99.90
3944;DHT22;1986;52.546;13.428;2023-11-21T05:19:47;6.50;99.90
3944;DHT22;1986;52.546;13.428;2023-11-21T05:22:14;6.50;99.90
3944;DHT22;1986;52.546;13.428;2023-11-21T05:24:41;6.50;99.90
3944;DHT22;1986;52.546;13.428;2023-11-21T05:27:08;6.40;99.90
3944;DHT22;1986;52.546;13.428;2023-11-21T05:29:36;6.30;99.90
3944;DHT22;1986;52.546;13.428;2023-11-21T05:32:06;6.30;99.90
3944;DHT22;1986;52.546;13.428;2023-11-21T05:34:33;6.30;99.90
3944;DHT22;1986;52.546;13.428;2023-11-21T05:37:00;6.30;99.90
3944;DHT22;1986;52.546;13.428;2023-11-21T05:39:29;6.30;99.90
3944;DHT22;1986;52.546;13.428;2023-11-21T05:41:58;6.30;99.90
3944;DHT22;1986;52.546;13.428;2023-11-21T05:44:25;6.40;99.90
3944;DHT22;1986;52.546;13.428;2023-11-21T05:46:52;6.40;99.90
3944;DHT22;1986;52.546;13.428;2023-11-21T05:49:23;6.40;99.90
3944;DHT22;1986;52.546;13.428;2023-11-21T05:52:01;6.50;99.90
3944;DHT22;1986;52.546;13.428;2023-11-21T05:54:44;6.50;99.90
3944;DHT22;1986;52.546;13.428;2023-11-21T05:57:11;6.50;99.90
3944;DHT22;1986;52.546;13.428;2023-11-21T05:59:39;6.50;99.90
3944;DHT22;1986;52.546;13.428;2023-11-21T06:02:06;6.50;99.90
3944;DHT22;1986;52.546;13.428;2023-11-21T06:04:35;6.50;99.90
3944;DHT22;1986;52.546;13.428;2023-11-21T06:07:03;6.50;99.90
3944;DHT22;1986;52.546;13.428;2023-11-21T06:09:30;6.50;99.90
3944;DHT22;1986;52.546;13.428;2023-11-21T06:11:57;6.50;99.90
3944;DHT22;1986;52.546;13.428;2023-11-21T06:14:25;6.60;99.90
3944;DHT22;1986;52.546;13.428;2023-11-21T06:16:52;6.60;99.90
3944;DHT22;1986;52.546;13.428;2023-11-21T06:19:19;6.50;99.90
3944;DHT22;1986;52.546;13.428;2023-11-21T06:21:48;6.50;99.90
3944;DHT22;1986;52.546;13.428;2023-11-21T06:24:16;6.40;99.90
3944;DHT22;1986;52.546;13.428;2023-11-21T06:26:43;6.50;99.90
3944;DHT22;1986;52.546;13.428;2023-11-21T06:29:10;6.50;99.90
3944;DHT22;1986;52.546;13.428;2023-11-21T06:31:38;6.50;99.90
3944;DHT22;1986;52.546;13.428;2023-11-21T06:34:07;6.50;99.90
3944;DHT22;1986;52.546;13.428;2023-11-21T06:36:35;6.50;99.90
3944;DHT22;1986;52.546;13.428;2023-11-21T06:39:06;6.40;99.90
3944;DHT22;1986;52.546;13.428;2023-11-21T06:41:34;6.40;99.90
3944;DHT22;1986;52.546;13.428;2023-11-21T06:44:04;6.50;99.90
3944;DHT22;1986;52.546;13.428;2023-11-21T06:46:36;6.50;99.90
3944;DHT22;1986;52.546;13.428;2023-11-21T06:49:08;6.50;99.90
3944;DHT22;1986;52.546;13.428;2023-11-21T06:51:35;6.50;99.90
3944;DHT22;1986;52.546;13.428;2023-11-21T06:54:04;6.50;99.90
3944;DHT22;1986;52.546;13.428;2023-11-21T06:56:34;6.40;99.90
3944;DHT22;1986;52.546;13.428;2023-11-21T06:59:01;6.50;99.90
3944;DHT22;1986;52.546;13.428;2023-11-21T07:01:32;6.50;99.90
3944;DHT22;1986;52.546;13.428;2023-11-21T07:04:06;6.50;99.90
3944;DHT22;1986;52.546;13.428;2023-11-21T07:06:35;6.30;99.90
3944;DHT22;1986;52.546;13.428;2023-11-21T07:09:05;6.20;99.90
3944;DHT22;1986;52.546;13.428;2023-11-21T07:11:34;6.20;99.90
3944;DHT22;1986;52.546;13.428;2023-11-21T07:14:01;6.30;99.90
3944;DHT22;1986;52.546;13.428;2023-11-21T07:16:33;6.30;99.90
3944;DHT22;1986;52.546;13.428;2023-11-21T07:19:04;6.20;99.90
3944;DHT22;1986;52.546;13.428;2023-11-21T07:21:38;6.10;99.90
3944;DHT22;1986;52.546;13.428;2023-11-21T07:24:08;6.10;99.90
3944;DHT22;1986;52.546;13.428;2023-11-21T07:26:36;6.10;99.90
3944;DHT22;1986;52.546;13.428;2023-11-21T07:29:05;6.10;99.90
3944;DHT22;1986;52.546;13.428;2023-11-21T07:31:37;5.90;99.90
3944;DHT22;1986;52.546;13.428;2023-11-21T07:34:05;5.90;99.90
3944;DHT22;1986;52.546;13.428;2023-11-21T07:36:34;5.90;99.90
3944;DHT22;1986;52.546;13.428;2023-11-21T07:39:02;5.80;99.90
3944;DHT22;1986;52.546;13.428;2023-11-21T07:41:33;5.70;99.90
3944;DHT22;1986;52.546;13.428;2023-11-21T07:44:00;5.70;99.90
3944;DHT22;1986;52.546;13.428;2023-11-21T07:46:30;5.60;99.90
3944;DHT22;1986;52.546;13.428;2023-11-21T07:48:58;5.60;99.90
3944;DHT22;1986;52.546;13.428;2023-11-21T07:51:30;5.70;99.90
3944;DHT22;1986;52.546;13.428;2023-11-21T07:53:57;5.70;99.90
3944;DHT22;1986;52.546;13.428;2023-11-21T07:56:24;5.60;99.90
3944;DHT22;1986;52.546;13.428;2023-11-21T07:58:53;5.50;99.90
3944;DHT22;1986;52.546;13.428;2023-11-21T08:01:21;5.50;99.90
3944;DHT22;1986;52.546;13.428;2023-11-21T08:03:48;5.50;99.90
3944;DHT22;1986;52.546;13.428;2023-11-21T08:06:17;5.50;99.90
3944;DHT22;1986;52.546;13.428;2023-11-21T08:08:45;5.50;99.90
3944;DHT22;1986;52.546;13.428;2023-11-21T08:11:13;5.50;99.90
3944;DHT22;1986;52.546;13.428;2023-11-21T08:13:40;5.50;99.90
3944;DHT22;1986;52.546;13.428;2023-11-21T08:16:10;5.50;99.90
3944;DHT22;1986;52.546;13.428;2023-11-21T08:18:37;5.50;99.90
3944;DHT22;1986;52.546;13.428;2023-11-21T08:21:05;5.40;99.90
3944;DHT22;1986;52.546;13.428;2023-11-21T08:23:35;5.40;99.90
3944;DHT22;1986;52.546;13.428;2023-11-21T08:26:04;5.40;99.90
3944;DHT22;1986;52.546;13.428;2023-11-21T08:28:31;5.30;99.90
3944;DHT22;1986;52.546;13.428;2023-11-21T08:31:00;5.40;99.90
3944;DHT22;1986;52.546;13.428;2023-11-21T08:33:29;5.40;99.90
3944;DHT22;1986;52.546;13.428;2023-11-21T08:35:56;5.40;99.90
3944;DHT22;1986;52.546;13.428;2023-11-21T08:38:23;5.40;99.90
3944;DHT22;1986;52.546;13.428;2023-11-21T08:40:50;5.40;99.90
3944;DHT22;1986;52.546;13.428;2023-11-21T08:43:17;5.40;99.90
3944;DHT22;1986;52.546;13.428;2023-11-21T08:45:46;5.40;99.90
3944;DHT22;1986;52.546;13.428;2023-11-21T08:48:16;5.30;99.90
3944;DHT22;1986;52.546;13.428;2023-11-21T08:50:46;5.30;99.90
3944;DHT22;1986;52.546;13.428;2023-11-21T08:53:16;5.30;99.90
3944;DHT22;1986;52.546;13.428;2023-11-21T08:55:44;5.40;99.90
3944;DHT22;1986;52.546;13.428;2023-11-21T08:58:12;5.50;99.90
3944;DHT22;1986;52.546;13.428;2023-11-21T09:00:40;5.50;99.90
3944;DHT22;1986;52.546;13.428;2023-11-21T09:03:12;5.40;99.90
3944;DHT22;1986;52.546;13.428;2023-11-21T09:05:41;5.50;99.90
3944;DHT22;1986;52.546;13.428;2023-11-21T09:08:09;5.60;99.90
3944;DHT22;1986;52.546;13.428;2023-11-21T09:10:37;5.50;99.90
3944;DHT22;1986;52.546;13.428;2023-11-21T09:13:05;5.40;99.90
3944;DHT22;1986;52.546;13.428;2023-11-21T09:15:34;5.40;99.90
3944;DHT22;1986;52.546;13.428;2023-11-21T09:18:01;5.30;99.90
3944;DHT22;1986;52.546;13.428;2023-11-21T09:20:31;5.30;99.90
3944;DHT22;1986;52.546;13.428;2023-11-21T09:22:58;5.30;99.90
3944;DHT22;1986;52.546;13.428;2023-11-21T09:25:29;5.30;99.90
3944;DHT22;1986;52.546;13.428;2023-11-21T09:27:57;5.20;99.90
3944;DHT22;1986;52.546;13.428;2023-11-21T09:30:24;5.20;99.90
3944;DHT22;1986;52.546;13.428;2023-11-21T09:32:51;5.10;99.90
3944;DHT22;1986;52.546;13.428;2023-11-21T09:35:18;5.00;99.90
3944;DHT22;1986;52.546;13.428;2023-11-21T09:37:46;5.00;99.90
3944;DHT22;1986;52.546;13.428;2023-11-21T09:40:13;5.10;99.90
3944;DHT22;1986;52.546;13.428;2023-11-21T09:42:52;5.10;99.90
3944;DHT22;1986;52.546;13.428;2023-11-21T09:45:25;5.10;99.90
3944;DHT22;1986;52.546;13.428;2023-11-21T09:48:00;5.10;99.90
3944;DHT22;1986;52.546;13.428;2023-11-21T09:50:28;5.10;99.90
3944;DHT22;1986;52.546;13.428;2023-11-21T09:53:09;5.10;99.90
3944;DHT22;1986;52.546;13.428;2023-11-21T09:55:42;5.00;99.90
3944;DHT22;1986;52.546;13.428;2023-11-21T09:58:14;5.00;99.90
3944;DHT22;1986;52.546;13.428;2023-11-21T10:00:41;5.00;99.90
3944;DHT22;1986;52.546;13.428;2023-11-21T10:03:09;5.00;99.90
3944;DHT22;1986;52.546;13.428;2023-11-21T10:05:42;5.00;99.90
3944;DHT22;1986;52.546;13.428;2023-11-21T10:08:21;5.00;99.90
3944;DHT22;1986;52.546;13.428;2023-11-21T10:10:52;4.90;99.90
3944;DHT22;1986;52.546;13.428;2023-11-21T10:13:23;4.90;99.90
3944;DHT22;1986;52.546;13.428;2023-11-21T10:15:52;4.80;99.90
3944;DHT22;1986;52.546;13.428;2023-11-21T10:18:20;5.00;99.90
3944;DHT22;1986;52.546;13.428;2023-11-21T10:20:49;5.00;99.90
3944;DHT22;1986;52.546;13.428;2023-11-21T10:23:19;4.90;99.90
3944;DHT22;1986;52.546;13.428;2023-11-21T10:25:47;4.90;99.90
3944;DHT22;1986;52.546;13.428;2023-11-21T10:28:14;4.90;99.90
3944;DHT22;1986;52.546;13.428;2023-11-21T10:30:45;4.70;99.90
3944;DHT22;1986;52.546;13.428;2023-11-21T10:33:13;4.70;99.90
3944;DHT22;1986;52.546;13.428;2023-11-21T10:35:44;4.70;99.90
3944;DHT22;1986;52.546;13.428;2023-11-21T10:38:15;4.60;99.90
3944;DHT22;1986;52.546;13.428;2023-11-21T10:40:44;4.50;99.90
3944;DHT22;1986;52.546;13.428;2023-11-21T10:43:13;4.50;99.90
3944;DHT22;1986;52.546;13.428;2023-11-21T10:45:44;4.50;99.90
3944;DHT22;1986;52.546;13.428;2023-11-21T10:48:13;4.40;99.90
3944;DHT22;1986;52.546;13.428;2023-11-21T10:50:43;4.40;99.90
3944;DHT22;1986;52.546;13.428;2023-11-21T10:53:10;4.40;99.90
3944;DHT22;1986;52.546;13.428;2023-11-21T10:55:40;4.40;99.90
3944;DHT22;1986;52.546;13.428;2023-11-21T10:58:08;4.40;99.90
3944;DHT22;1986;52.546;13.428;2023-11-21T11:00:44;4.40;99.90
3944;DHT22;1986;52.546;13.428;2023-11-21T11:03:13;4.40;99.90
3944;DHT22;1986;52.546;13.428;2023-11-21T11:05:41;4.50;99.90
3944;DHT22;1986;52.546;13.428;2023-11-21T11:08:12;4.60;99.90
3944;DHT22;1986;52.546;13.428;2023-11-21T11:10:44;4.60;99.90
3944;DHT22;1986;52.546;13.428;2023-11-21T11:13:13;4.60;99.90
3944;DHT22;1986;52.546;13.428;2023-11-21T11:15:42;4.60;99.90
3944;DHT22;1986;52.546;13.428;2023-11-21T11:18:11;4.80;99.90
3944;DHT22;1986;52.546;13.428;2023-11-21T11:20:40;4.90;99.90
3944;DHT22;1986;52.546;13.428;2023-11-21T11:23:29;4.80;99.90
3944;DHT22;1986;52.546;13.428;2023-11-21T11:26:10;4.70;99.90
3944;DHT22;1986;52.546;13.428;2023-11-21T11:28:47;4.80;99.90
3944;DHT22;1986;52.546;13.428;2023-11-21T11:31:26;4.80;99.90
3944;DHT22;1986;52.546;13.428;2023-11-21T11:34:01;5.00;99.90
3944;DHT22;1986;52.546;13.428;2023-11-21T11:36:36;5.10;99.90
3944;DHT22;1986;52.546;13.428;2023-11-21T11:39:26;5.00;99.90
3944;DHT22;1986;52.546;13.428;2023-11-21T11:41:56;5.10;99.90
3944;DHT22;1986;52.546;13.428;2023-11-21T11:44:50;5.20;99.90
3944;DHT22;1986;52.546;13.428;2023-11-21T11:47:23;5.00;99.90
3944;DHT22;1986;52.546;13.428;2023-11-21T11:50:03;5.00;99.90
3944;DHT22;1986;52.546;13.428;2023-11-21T11:52:35;5.00;99.90
3944;DHT22;1986;52.546;13.428;2023-11-21T11:55:03;5.20;99.90
3944;DHT22;1986;52.546;13.428;2023-11-21T11:57:31;5.20;99.90
3944;DHT22;1986;52.546;13.428;2023-11-21T12:00:09;5.30;99.90
3944;DHT22;1986;52.546;13.428;2023-11-21T12:02:38;5.40;99.90
3944;DHT22;1986;52.546;13.428;2023-11-21T12:05:10;5.30;99.90
3944;DHT22;1986;52.546;13.428;2023-11-21T12:07:49;5.10;99.90
3944;DHT22;1986;52.546;13.428;2023-11-21T12:10:19;5.30;99.90
3944;DHT22;1986;52.546;13.428;2023-11-21T12:12:48;5.30;99.90
3944;DHT22;1986;52.546;13.428;2023-11-21T12:15:18;5.30;99.90
3944;DHT22;1986;52.546;13.428;2023-11-21T12:17:47;5.30;99.90
3944;DHT22;1986;52.546;13.428;2023-11-21T12:20:17;5.40;99.90
3944;DHT22;1986;52.546;13.428;2023-11-21T12:22:48;5.40;99.90
3944;DHT22;1986;52.546;13.428;2023-11-21T12:25:17;5.30;99.90
3944;DHT22;1986;52.546;13.428;2023-11-21T12:27:46;5.20;99.90
3944;DHT22;1986;52.546;13.428;2023-11-21T12:30:16;5.10;99.90
3944;DHT22;1986;52.546;13.428;2023-11-21T12:32:44;5.10;99.90
3944;DHT22;1986;52.546;13.428;2023-11-21T12:35:17;5.10;99.90
3944;DHT22;1986;52.546;13.428;2023-11-21T12:37:52;5.10;99.90
3944;DHT22;1986;52.546;13.428;2023-11-21T12:40:19;5.10;99.90
3944;DHT22;1986;52.546;13.428;2023-11-21T12:42:51;4.80;99.90
3944;DHT22;1986;52.546;13.428;2023-11-21T12:45:20;4.60;99.90
3944;DHT22;1986;52.546;13.428;2023-11-21T12:47:48;4.60;99.90
3944;DHT22;1986;52.546;13.428;2023-11-21T12:50:26;4.50;99.90
3944;DHT22;1986;52.546;13.428;2023-11-21T12:52:58;4.40;99.90
3944;DHT22;1986;52.546;13.428;2023-11-21T12:55:32;4.30;99.90
3944;DHT22;1986;52.546;13.428;2023-11-21T12:58:04;4.30;99.90
3944;DHT22;1986;52.546;13.428;2023-11-21T13:00:35;4.30;99.90
3944;DHT22;1986;52.546;13.428;2023-11-21T13:03:09;4.40;99.90
3944;DHT22;1986;52.546;13.428;2023-11-21T13:05:40;4.30;99.90
3944;DHT22;1986;52.546;13.428;2023-11-21T13:08:11;4.30;99.90
3944;DHT22;1986;52.546;13.428;2023-11-21T13:10:45;4.40;99.90
3944;DHT22;1986;52.546;13.428;2023-11-21T13:13:15;4.50;99.90
3944;DHT22;1986;52.546;13.428;2023-11-21T13:15:54;4.40;99.90
3944;DHT22;1986;52.546;13.428;2023-11-21T13:18:22;4.20;99.90
3944;DHT22;1986;52.546;13.428;2023-11-21T13:20:59;4.10;99.90
3944;DHT22;1986;52.546;13.428;2023-11-21T13:23:34;4.00;99.90
3944;DHT22;1986;52.546;13.428;2023-11-21T13:26:03;3.90;99.90
3944;DHT22;1986;52.546;13.428;2023-11-21T13:28:31;3.90;99.90
3944;DHT22;1986;52.546;13.428;2023-11-21T13:31:00;3.90;99.90
3944;DHT22;1986;52.546;13.428;2023-11-21T13:33:35;4.00;99.90
3944;DHT22;1986;52.546;13.428;2023-11-21T13:36:06;4.00;99.90
3944;DHT22;1986;52.546;13.428;2023-11-21T13:38:34;3.80;99.90
3944;DHT22;1986;52.546;13.428;2023-11-21T13:41:03;3.80;99.90
3944;DHT22;1986;52.546;13.428;2023-11-21T13:43:33;3.80;99.90
3944;DHT22;1986;52.546;13.428;2023-11-21T13:46:02;3.70;99.90
3944;DHT22;1986;52.546;13.428;2023-11-21T13:48:38;3.70;99.90
3944;DHT22;1986;52.546;13.428;2023-11-21T13:51:11;3.80;99.90
3944;DHT22;1986;52.546;13.428;2023-11-21T13:53:44;3.80;99.90
3944;DHT22;1986;52.546;13.428;2023-11-21T13:56:13;3.70;99.90
3944;DHT22;1986;52.546;13.428;2023-11-21T13:58:45;3.60;99.90
3944;DHT22;1986;52.546;13.428;2023-11-21T14:01:17;3.70;99.90
3944;DHT22;1986;52.546;13.428;2023-11-21T14:04:08;3.60;99.90
3944;DHT22;1986;52.546;13.428;2023-11-21T14:06:47;3.60;99.90
3944;DHT22;1986;52.546;13.428;2023-11-21T14:09:15;3.50;99.90
3944;DHT22;1986;52.546;13.428;2023-11-21T14:11:50;3.40;99.90
3944;DHT22;1986;52.546;13.428;2023-11-21T14:14:19;3.40;99.90
3944;DHT22;1986;52.546;13.428;2023-11-21T14:16:48;3.30;99.90
3944;DHT22;1986;52.546;13.428;2023-11-21T14:19:18;3.40;99.90
3944;DHT22;1986;52.546;13.428;2023-11-21T14:21:48;3.30;99.90
3944;DHT22;1986;52.546;13.428;2023-11-21T14:24:17;3.20;99.90
3944;DHT22;1986;52.546;13.428;2023-11-21T14:26:45;3.10;99.90
3944;DHT22;1986;52.546;13.428;2023-11-21T14:29:13;3.20;99.90
3944;DHT22;1986;52.546;13.428;2023-11-21T14:31:43;3.20;99.90
3944;DHT22;1986;52.546;13.428;2023-11-21T14:34:12;3.20;99.90
3944;DHT22;1986;52.546;13.428;2023-11-21T14:36:42;3.30;99.90
3944;DHT22;1986;52.546;13.428;2023-11-21T14:39:14;3.20;99.90
3944;DHT22;1986;52.546;13.428;2023-11-21T14:41:54;3.10;99.90
3944;DHT22;1986;52.546;13.428;2023-11-21T14:44:23;3.10;99.90
3944;DHT22;1986;52.546;13.428;2023-11-21T14:46:53;3.00;99.90
3944;DHT22;1986;52.546;13.428;2023-11-21T14:49:22;3.00;99.90
3944;DHT22;1986;52.546;13.428;2023-11-21T14:51:54;3.00;99.90
3944;DHT22;1986;52.546;13.428;2023-11-21T14:54:31;3.00;99.90
3944;DHT22;1986;52.546;13.428;2023-11-21T14:57:12;3.00;99.90
3944;DHT22;1986;52.546;13.428;2023-11-21T14:59:44;2.90;99.90
3944;DHT22;1986;52.546;13.428;2023-11-21T15:02:12;2.90;99.90
3944;DHT22;1986;52.546;13.428;2023-11-21T15:04:45;2.90;99.90
3944;DHT22;1986;52.546;13.428;2023-11-21T15:07:27;2.90;99.90
3944;DHT22;1986;52.546;13.428;2023-11-21T15:09:56;2.90;99.90
3944;DHT22;1986;52.546;13.428;2023-11-21T15:12:25;2.90;99.90
3944;DHT22;1986;52.546;13.428;2023-11-21T15:14:56;2.80;99.90
3944;DHT22;1986;52.546;13.428;2023-11-21T15:17:36;2.80;99.90
3944;DHT22;1986;52.546;13.428;2023-11-21T15:20:05;2.90;99.90
3944;DHT22;1986;52.546;13.428;2023-11-21T15:22:34;2.90;99.90
3944;DHT22;1986;52.546;13.428;2023-11-21T15:25:03;2.90;99.90
3944;DHT22;1986;52.546;13.428;2023-11-21T15:27:36;2.90;99.90
3944;DHT22;1986;52.546;13.428;2023-11-21T15:30:03;3.10;99.90
3944;DHT22;1986;52.546;13.428;2023-11-21T15:32:30;3.10;99.90
3944;DHT22;1986;52.546;13.428;2023-11-21T15:34:58;3.00;99.90
3944;DHT22;1986;52.546;13.428;2023-11-21T15:37:26;3.00;99.90
3944;DHT22;1986;52.546;13.428;2023-11-21T15:39:58;3.00;99.90
3944;DHT22;1986;52.546;13.428;2023-11-21T15:42:26;3.00;99.90
3944;DHT22;1986;52.546;13.428;2023-11-21T15:44:54;3.00;99.90
3944;DHT22;1986;52.546;13.428;2023-11-21T15:47:22;2.90;99.90
3944;DHT22;1986;52.546;13.428;2023-11-21T15:49:50;2.90;99.90
3944;DHT22;1986;52.546;13.428;2023-11-21T15:52:30;2.90;99.90
3944;DHT22;1986;52.546;13.428;2023-11-21T15:54:57;2.90;99.90
3944;DHT22;1986;52.546;13.428;2023-11-21T15:57:25;2.90;99.90
3944;DHT22;1986;52.546;13.428;2023-11-21T15:59:56;2.90;99.90
3944;DHT22;1986;52.546;13.428;2023-11-21T16:02:23;2.90;99.90
3944;DHT22;1986;52.546;13.428;2023-11-21T16:04:55;2.80;99.90
3944;DHT22;1986;52.546;13.428;2023-11-21T16:07:23;2.80;99.90
3944;DHT22;1986;52.546;13.428;2023-11-21T16:09:50;2.80;99.90
3944;DHT22;1986;52.546;13.428;2023-11-21T16:12:18;2.80;99.90
3944;DHT22;1986;52.546;13.428;2023-11-21T16:14:49;2.80;99.90
3944;DHT22;1986;52.546;13.428;2023-11-21T16:17:16;2.80;99.90
3944;DHT22;1986;52.546;13.428;2023-11-21T16:19:44;2.90;99.90
3944;DHT22;1986;52.546;13.428;2023-11-21T16:22:12;2.90;99.90
3944;DHT22;1986;52.546;13.428;2023-11-21T16:24:39;3.00;99.90
3944;DHT22;1986;52.546;13.428;2023-11-21T16:27:06;2.90;99.90
3944;DHT22;1986;52.546;13.428;2023-11-21T16:29:37;2.90;99.90
3944;DHT22;1986;52.546;13.428;2023-11-21T16:32:10;2.90;99.90
3944;DHT22;1986;52.546;13.428;2023-11-21T16:34:37;2.90;99.90